createdAt,value
2017-06-15T00:01:09.764Z,1011.41
2017-06-15T00:02:19.975Z,1011.37
2017-06-15T00:03:30.195Z,1011.37
2017-06-15T00:04:39.821Z,1011.35
2017-06-15T00:05:50.084Z,1011.33
2017-06-15T00:06:59.695Z,1011.34
2017-06-15T00:08:09.133Z,1011.37
2017-06-15T00:09:19.359Z,1011.34
2017-06-15T00:10:29.268Z,1011.37
2017-06-15T00:11:39.177Z,1011.35
2017-06-15T00:12:49.104Z,1011.31
2017-06-15T00:13:59.009Z,1011.35
2017-06-15T00:15:09.230Z,1011.35
2017-06-15T00:16:18.853Z,1011.35
2017-06-15T00:17:28.768Z,1011.37
2017-06-15T00:18:38.685Z,1011.36
2017-06-15T00:19:49.047Z,1011.35
2017-06-15T00:20:58.951Z,1011.36
2017-06-15T00:22:08.888Z,1011.35
2017-06-15T00:23:18.807Z,1011.33
2017-06-15T00:24:28.124Z,1011.36
2017-06-15T00:25:38.693Z,1011.35
2017-06-15T00:26:48.599Z,1011.34
2017-06-15T00:27:58.839Z,1011.32
2017-06-15T00:29:08.430Z,1011.32
2017-06-15T00:30:18.367Z,1011.25
2017-06-15T00:31:28.119Z,1011.22
2017-06-15T00:32:38.020Z,1011.2
2017-06-15T00:33:48.240Z,1011.19
2017-06-15T00:34:58.465Z,1011.21
2017-06-15T00:36:08.679Z,1011.19
2017-06-15T00:37:18.740Z,1011.19
2017-06-15T00:38:28.967Z,1011.21
2017-06-15T00:39:38.872Z,1011.2
2017-06-15T00:40:48.778Z,1011.2
2017-06-15T00:41:58.993Z,1011.21
2017-06-15T00:43:09.244Z,1011.19
2017-06-15T00:44:19.154Z,1011.15
2017-06-15T00:45:29.058Z,1011.18
2017-06-15T00:46:38.973Z,1011.1
2017-06-15T00:47:48.889Z,1011.11
2017-06-15T00:48:59.257Z,1011.11
2017-06-15T00:50:09.158Z,1011.04
2017-06-15T00:51:18.747Z,1011.09
2017-06-15T00:52:28.665Z,1011.09
2017-06-15T00:53:38.586Z,1011.05
2017-06-15T00:54:48.332Z,1011.12
2017-06-15T00:55:58.241Z,1011.06
2017-06-15T00:57:08.155Z,1011.1
2017-06-15T00:58:18.377Z,1011.1
2017-06-15T00:59:28.309Z,1011.17
2017-06-15T01:00:38.683Z,1011.14
2017-06-15T01:01:48.287Z,1011.1
2017-06-15T01:02:58.189Z,1011.12
2017-06-15T01:04:08.097Z,1011.12
2017-06-15T01:05:18.339Z,1011.14
2017-06-15T01:06:27.965Z,1011.13
2017-06-15T01:07:38.178Z,1011.13
2017-06-15T01:08:48.094Z,1011.12
2017-06-15T01:09:58.015Z,1011.1
2017-06-15T01:11:07.618Z,1011.06
2017-06-15T01:12:17.959Z,1011.07
2017-06-15T01:13:27.561Z,1011.01
2017-06-15T01:14:37.155Z,1011.01
2017-06-15T01:15:46.782Z,1010.97
2017-06-15T01:16:56.710Z,1010.96
2017-06-15T01:18:06.715Z,1010.98
2017-06-15T01:19:16.622Z,1011
2017-06-15T01:20:26.529Z,1011.01
2017-06-15T01:21:36.448Z,1011.02
2017-06-15T01:22:46.678Z,1011
2017-06-15T01:23:56.608Z,1010.97
2017-06-15T01:25:06.596Z,1010.98
2017-06-15T01:26:16.495Z,1010.96
2017-06-15T01:27:26.708Z,1010.93
2017-06-15T01:28:36.300Z,1010.94
2017-06-15T01:29:46.205Z,1010.94
2017-06-15T01:30:56.110Z,1010.98
2017-06-15T01:32:05.723Z,1010.95
2017-06-15T01:33:15.648Z,1010.96
2017-06-15T01:34:25.871Z,1010.9
2017-06-15T01:35:35.825Z,1010.91
2017-06-15T01:36:46.038Z,1010.93
2017-06-15T01:37:55.955Z,1010.91
2017-06-15T01:39:06.244Z,1010.91
2017-06-15T01:40:16.459Z,1010.91
2017-06-15T01:41:26.671Z,1010.93
2017-06-15T01:42:35.966Z,1010.9
2017-06-15T01:43:46.252Z,1010.92
2017-06-15T01:44:56.475Z,1010.91
2017-06-15T01:46:05.768Z,1010.9
2017-06-15T01:47:15.694Z,1010.93
2017-06-15T01:48:25.600Z,1010.92
2017-06-15T01:49:40.536Z,1010.91
2017-06-15T01:50:49.835Z,1010.93
2017-06-15T01:51:59.758Z,1010.94
2017-06-15T01:53:09.829Z,1010.93
2017-06-15T01:54:19.740Z,1010.93
2017-06-15T01:55:29.662Z,1010.94
2017-06-15T01:56:39.583Z,1010.95
2017-06-15T01:57:49.177Z,1010.92
2017-06-15T01:58:58.931Z,1010.89
2017-06-15T02:00:09.149Z,1010.88
2017-06-15T02:01:19.078Z,1010.93
2017-06-15T02:02:28.995Z,1010.91
2017-06-15T02:03:38.893Z,1010.9
2017-06-15T02:04:48.909Z,1010.88
2017-06-15T02:05:59.144Z,1010.91
2017-06-15T02:07:08.752Z,1010.92
2017-06-15T02:08:17.747Z,1010.89
2017-06-15T02:09:27.961Z,1010.9
2017-06-15T02:10:38.325Z,1010.84
2017-06-15T02:11:48.247Z,1010.83
2017-06-15T02:12:58.150Z,1010.79
2017-06-15T02:14:08.370Z,1010.82
2017-06-15T02:15:18.286Z,1010.83
2017-06-15T02:16:28.667Z,1010.82
2017-06-15T02:17:38.888Z,1010.8
2017-06-15T02:18:49.105Z,1010.8
2017-06-15T02:19:59.014Z,1010.8
2017-06-15T02:21:08.930Z,1010.76
2017-06-15T02:22:18.688Z,1010.75
2017-06-15T02:23:28.905Z,1010.72
2017-06-15T02:24:38.820Z,1010.79
2017-06-15T02:25:48.736Z,1010.77
2017-06-15T02:26:58.651Z,1010.78
2017-06-15T02:28:08.714Z,1010.76
2017-06-15T02:29:18.923Z,1010.81
2017-06-15T02:30:29.141Z,1010.77
2017-06-15T02:31:38.437Z,1010.74
2017-06-15T02:32:48.658Z,1010.77
2017-06-15T02:33:59.022Z,1010.74
2017-06-15T02:35:08.932Z,1010.75
2017-06-15T02:36:18.841Z,1010.75
2017-06-15T02:37:28.451Z,1010.77
2017-06-15T02:38:38.365Z,1010.77
2017-06-15T02:39:48.742Z,1010.73
2017-06-15T02:40:58.671Z,1010.71
2017-06-15T02:42:08.889Z,1010.7
2017-06-15T02:43:18.800Z,1010.69
2017-06-15T02:44:29.034Z,1010.72
2017-06-15T02:45:39.087Z,1010.71
2017-06-15T02:46:48.692Z,1010.68
2017-06-15T02:47:58.289Z,1010.67
2017-06-15T02:49:08.189Z,1010.66
2017-06-15T02:50:18.394Z,1010.67
2017-06-15T02:51:28.628Z,1010.7
2017-06-15T02:52:38.529Z,1010.66
2017-06-15T02:53:48.748Z,1010.67
2017-06-15T02:54:58.646Z,1010.65
2017-06-15T02:56:08.239Z,1010.65
2017-06-15T02:57:17.844Z,1010.61
2017-06-15T02:58:28.074Z,1010.65
2017-06-15T02:59:38.290Z,1010.64
2017-06-15T03:00:47.896Z,1010.58
2017-06-15T03:01:58.111Z,1010.65
2017-06-15T03:03:08.424Z,1010.6
2017-06-15T03:04:18.639Z,1010.62
2017-06-15T03:05:28.851Z,1010.58
2017-06-15T03:06:38.752Z,1010.59
2017-06-15T03:07:48.350Z,1010.57
2017-06-15T03:08:58.083Z,1010.57
2017-06-15T03:10:07.688Z,1010.61
2017-06-15T03:11:16.980Z,1010.56
2017-06-15T03:12:27.202Z,1010.53
2017-06-15T03:13:37.108Z,1010.55
2017-06-15T03:14:46.458Z,1010.54
2017-06-15T03:15:56.684Z,1010.59
2017-06-15T03:17:06.288Z,1010.5
2017-06-15T03:18:15.579Z,1010.51
2017-06-15T03:19:25.179Z,1010.5
2017-06-15T03:20:34.519Z,1010.46
2017-06-15T03:21:44.438Z,1010.49
2017-06-15T03:22:54.340Z,1010.46
2017-06-15T03:24:03.938Z,1010.46
2017-06-15T03:25:13.535Z,1010.44
2017-06-15T03:26:23.278Z,1010.47
2017-06-15T03:27:32.566Z,1010.48
2017-06-15T03:28:42.467Z,1010.44
2017-06-15T03:29:53.053Z,1010.45
2017-06-15T03:31:02.959Z,1010.43
2017-06-15T03:32:13.322Z,1010.44
2017-06-15T03:33:23.549Z,1010.44
2017-06-15T03:34:33.159Z,1010.48
2017-06-15T03:35:42.756Z,1010.45
2017-06-15T03:36:52.960Z,1010.45
2017-06-15T03:38:03.181Z,1010.47
2017-06-15T03:39:13.400Z,1010.46
2017-06-15T03:40:23.326Z,1010.47
2017-06-15T03:41:32.935Z,1010.5
2017-06-15T03:42:42.850Z,1010.48
2017-06-15T03:43:52.760Z,1010.49
2017-06-15T03:45:02.664Z,1010.5
2017-06-15T03:46:12.268Z,1010.51
2017-06-15T03:47:22.190Z,1010.53
2017-06-15T03:48:31.480Z,1010.52
2017-06-15T03:49:41.430Z,1010.49
2017-06-15T03:50:51.647Z,1010.49
2017-06-15T03:52:00.933Z,1010.51
2017-06-15T03:53:10.578Z,1010.56
2017-06-15T03:54:20.171Z,1010.52
2017-06-15T03:55:30.534Z,1010.5
2017-06-15T03:56:40.747Z,1010.51
2017-06-15T03:57:50.956Z,1010.48
2017-06-15T03:59:00.864Z,1010.54
2017-06-15T04:00:11.086Z,1010.52
2017-06-15T04:01:21.412Z,1010.54
2017-06-15T04:02:31.323Z,1010.55
2017-06-15T04:03:41.294Z,1010.55
2017-06-15T04:04:50.891Z,1010.55
2017-06-15T04:06:00.494Z,1010.55
2017-06-15T04:07:10.547Z,1010.51
2017-06-15T04:08:20.759Z,1010.51
2017-06-15T04:09:30.352Z,1010.52
2017-06-15T04:10:39.952Z,1010.52
2017-06-15T04:11:50.170Z,1010.52
2017-06-15T04:13:00.491Z,1010.49
2017-06-15T04:14:10.108Z,1010.49
2017-06-15T04:15:20.012Z,1010.5
2017-06-15T04:16:29.919Z,1010.38
2017-06-15T04:17:39.513Z,1010.5
2017-06-15T04:18:49.734Z,1010.46
2017-06-15T04:19:59.646Z,1010.5
2017-06-15T04:21:09.871Z,1010.52
2017-06-15T04:22:19.778Z,1010.5
2017-06-15T04:23:29.078Z,1010.53
2017-06-15T04:24:39.049Z,1010.5
2017-06-15T04:25:49.268Z,1010.5
2017-06-15T04:26:59.180Z,1010.53
2017-06-15T04:28:09.397Z,1010.52
2017-06-15T04:29:19.312Z,1010.49
2017-06-15T04:30:29.686Z,1010.49
2017-06-15T04:31:39.943Z,1010.47
2017-06-15T04:32:49.850Z,1010.49
2017-06-15T04:33:59.771Z,1010.45
2017-06-15T04:35:09.382Z,1010.48
2017-06-15T04:36:19.645Z,1010.47
2017-06-15T04:37:29.559Z,1010.46
2017-06-15T04:38:39.480Z,1010.49
2017-06-15T04:39:49.393Z,1010.54
2017-06-15T04:40:59.306Z,1010.49
2017-06-15T04:42:09.823Z,1010.49
2017-06-15T04:43:19.439Z,1010.46
2017-06-15T04:44:29.658Z,1010.48
2017-06-15T04:45:39.883Z,1010.43
2017-06-15T04:46:50.102Z,1010.46
2017-06-15T04:48:00.170Z,1010.48
2017-06-15T04:49:09.776Z,1010.5
2017-06-15T04:50:19.699Z,1010.52
2017-06-15T04:51:29.620Z,1010.5
2017-06-15T04:52:39.566Z,1010.48
2017-06-15T04:53:48.712Z,1010.45
2017-06-15T04:54:58.944Z,1010.47
2017-06-15T04:56:08.253Z,1010.43
2017-06-15T04:57:18.176Z,1010.44
2017-06-15T04:58:28.096Z,1010.45
2017-06-15T04:59:38.422Z,1010.44
2017-06-15T05:00:48.338Z,1010.45
2017-06-15T05:01:57.635Z,1010.47
2017-06-15T05:03:06.947Z,1010.46
2017-06-15T05:04:17.167Z,1010.49
2017-06-15T05:05:27.234Z,1010.52
2017-06-15T05:06:37.463Z,1010.53
2017-06-15T05:07:47.683Z,1010.53
2017-06-15T05:08:57.600Z,1010.54
2017-06-15T05:10:07.222Z,1010.6
2017-06-15T05:11:16.984Z,1010.55
2017-06-15T05:12:26.316Z,1010.54
2017-06-15T05:13:35.923Z,1010.56
2017-06-15T05:14:45.537Z,1010.56
2017-06-15T05:15:55.760Z,1010.52
2017-06-15T05:17:05.818Z,1010.56
2017-06-15T05:18:15.740Z,1010.57
2017-06-15T05:19:25.969Z,1010.54
2017-06-15T05:20:36.191Z,1010.56
2017-06-15T05:21:46.104Z,1010.56
2017-06-15T05:22:56.549Z,1010.55
2017-06-15T05:24:06.783Z,1010.53
2017-06-15T05:25:16.714Z,1010.5
2017-06-15T05:26:26.642Z,1010.5
2017-06-15T05:27:36.248Z,1010.48
2017-06-15T05:28:46.518Z,1010.48
2017-06-15T05:29:56.747Z,1010.44
2017-06-15T05:31:06.672Z,1010.45
2017-06-15T05:32:16.612Z,1010.43
2017-06-15T05:33:26.831Z,1010.47
2017-06-15T05:34:36.292Z,1010.51
2017-06-15T05:35:45.905Z,1010.52
2017-06-15T05:36:55.831Z,1010.49
2017-06-15T05:38:06.061Z,1010.5
2017-06-15T05:39:16.293Z,1010.52
2017-06-15T05:40:25.296Z,1010.51
2017-06-15T05:41:35.528Z,1010.47
2017-06-15T05:42:45.451Z,1010.49
2017-06-15T05:43:55.367Z,1010.46
2017-06-15T05:45:05.593Z,1010.43
2017-06-15T05:46:15.989Z,1010.44
2017-06-15T05:47:25.923Z,1010.39
2017-06-15T05:48:35.532Z,1010.39
2017-06-15T05:49:45.210Z,1010.39
2017-06-15T05:50:55.148Z,1010.36
2017-06-15T05:52:04.779Z,1010.41
2017-06-15T05:53:14.698Z,1010.46
2017-06-15T05:54:24.615Z,1010.46
2017-06-15T05:55:34.258Z,1010.42
2017-06-15T05:56:44.190Z,1010.45
2017-06-15T05:57:54.210Z,1010.46
2017-06-15T05:59:03.827Z,1010.45
2017-06-15T06:00:14.069Z,1010.44
2017-06-15T06:01:23.989Z,1010.46
2017-06-15T06:02:34.220Z,1010.48
2017-06-15T06:03:44.441Z,1010.44
2017-06-15T06:04:54.366Z,1010.45
2017-06-15T06:06:04.304Z,1010.46
2017-06-15T06:07:14.528Z,1010.49
2017-06-15T06:08:24.166Z,1010.51
2017-06-15T06:09:34.233Z,1010.49
2017-06-15T06:10:43.905Z,1010.48
2017-06-15T06:11:53.822Z,1010.48
2017-06-15T06:13:03.428Z,1010.47
2017-06-15T06:14:13.038Z,1010.5
2017-06-15T06:15:22.796Z,1010.47
2017-06-15T06:16:32.718Z,1010.46
2017-06-15T06:17:42.933Z,1010.49
2017-06-15T06:18:52.852Z,1010.42
2017-06-15T06:20:02.157Z,1010.41
2017-06-15T06:21:12.234Z,1010.38
2017-06-15T06:22:22.458Z,1010.42
2017-06-15T06:23:32.679Z,1010.4
2017-06-15T06:24:42.599Z,1010.41
2017-06-15T06:25:52.221Z,1010.39
2017-06-15T06:27:01.945Z,1010.37
2017-06-15T06:28:11.871Z,1010.36
2017-06-15T06:29:21.486Z,1010.36
2017-06-15T06:30:31.720Z,1010.29
2017-06-15T06:31:41.644Z,1010.31
2017-06-15T06:32:51.876Z,1010.33
2017-06-15T06:34:02.094Z,1010.33
2017-06-15T06:35:12.017Z,1010.32
2017-06-15T06:36:21.325Z,1010.33
2017-06-15T06:37:30.957Z,1010.35
2017-06-15T06:38:40.872Z,1010.35
2017-06-15T06:39:50.790Z,1010.33
2017-06-15T06:41:00.401Z,1010.36
2017-06-15T06:42:10.319Z,1010.35
2017-06-15T06:43:20.091Z,1010.33
2017-06-15T06:44:30.013Z,1010.33
2017-06-15T06:45:39.938Z,1010.32
2017-06-15T06:46:49.857Z,1010.29
2017-06-15T06:47:59.779Z,1010.31
2017-06-15T06:49:10.001Z,1010.26
2017-06-15T06:50:19.621Z,1010.26
2017-06-15T06:51:29.548Z,1010.21
2017-06-15T06:52:39.160Z,1010.21
2017-06-15T06:53:49.390Z,1010.23
2017-06-15T06:54:59.155Z,1010.18
2017-06-15T06:56:08.774Z,1010.18
2017-06-15T06:57:18.389Z,1010.12
2017-06-15T06:58:28.346Z,1010.2
2017-06-15T06:59:38.558Z,1010.17
2017-06-15T07:00:48.639Z,1010.21
2017-06-15T07:01:58.587Z,1010.25
2017-06-15T07:03:08.503Z,1010.23
2017-06-15T07:04:18.433Z,1010.21
2017-06-15T07:05:28.658Z,1010.16
2017-06-15T07:06:38.633Z,1010.17
2017-06-15T07:07:48.558Z,1010.23
2017-06-15T07:08:58.792Z,1010.21
2017-06-15T07:10:09.022Z,1010.24
2017-06-15T07:11:18.018Z,1010.24
2017-06-15T07:12:27.799Z,1010.26
2017-06-15T07:13:38.051Z,1010.25
2017-06-15T07:14:47.969Z,1010.25
2017-06-15T07:15:57.902Z,1010.23
2017-06-15T07:17:07.516Z,1010.23
2017-06-15T07:18:17.272Z,1010.2
2017-06-15T07:19:27.498Z,1010.2
2017-06-15T07:20:37.108Z,1010.21
2017-06-15T07:21:47.344Z,1010.17
2017-06-15T07:22:56.955Z,1010.21
2017-06-15T07:24:07.032Z,1010.2
2017-06-15T07:25:16.652Z,1010.2
2017-06-15T07:26:26.602Z,1010.19
2017-06-15T07:27:36.518Z,1010.18
2017-06-15T07:28:46.435Z,1010.17
2017-06-15T07:29:56.057Z,1010.17
2017-06-15T07:31:06.288Z,1010.19
2017-06-15T07:32:15.607Z,1010.19
2017-06-15T07:33:25.830Z,1010.15
2017-06-15T07:34:36.064Z,1010.18
2017-06-15T07:35:46.291Z,1010.13
2017-06-15T07:36:56.241Z,1010.14
2017-06-15T07:38:06.477Z,1010.1
2017-06-15T07:39:16.709Z,1010.1
2017-06-15T07:40:26.021Z,1010.12
2017-06-15T07:41:35.965Z,1010.13
2017-06-15T07:42:45.584Z,1010.12
2017-06-15T07:43:55.508Z,1010.14
2017-06-15T07:45:05.120Z,1010.15
2017-06-15T07:46:14.731Z,1010.11
2017-06-15T07:47:25.006Z,1010.15
2017-06-15T07:48:35.237Z,1010.09
2017-06-15T07:49:45.477Z,1010.11
2017-06-15T07:50:55.388Z,1010.13
2017-06-15T07:52:05.616Z,1010.14
2017-06-15T07:53:15.549Z,1010.13
2017-06-15T07:54:25.163Z,1010.15
2017-06-15T07:55:35.403Z,1010.2
2017-06-15T07:56:45.018Z,1010.18
2017-06-15T07:57:54.936Z,1010.2
2017-06-15T07:59:05.182Z,1010.17
2017-06-15T08:00:14.799Z,1010.22
2017-06-15T08:01:24.428Z,1010.18
2017-06-15T08:02:34.348Z,1010.18
2017-06-15T08:03:44.286Z,1010.14
2017-06-15T08:04:54.517Z,1010.13
2017-06-15T08:06:04.740Z,1010.09
2017-06-15T08:07:14.659Z,1010.12
2017-06-15T08:08:23.961Z,1010.08
2017-06-15T08:09:33.580Z,1010.08
2017-06-15T08:10:43.606Z,1010.12
2017-06-15T08:11:53.848Z,1010.09
2017-06-15T08:13:03.774Z,1010.09
2017-06-15T08:14:13.396Z,1010.08
2017-06-15T08:15:23.640Z,1010.08
2017-06-15T08:16:33.715Z,1010.05
2017-06-15T08:17:43.342Z,1010.07
2017-06-15T08:18:53.256Z,1010.08
2017-06-15T08:20:02.869Z,1010.06
2017-06-15T08:21:12.791Z,1010.08
2017-06-15T08:22:22.719Z,1010.1
2017-06-15T08:23:32.654Z,1010.1
2017-06-15T08:24:42.573Z,1010.11
2017-06-15T08:25:52.798Z,1010.13
2017-06-15T08:27:02.718Z,1010.12
2017-06-15T08:28:13.104Z,1010.17
2017-06-15T08:29:23.020Z,1010.17
2017-06-15T08:30:32.638Z,1010.15
2017-06-15T08:31:42.258Z,1010.16
2017-06-15T08:32:52.188Z,1010.16
2017-06-15T08:34:02.286Z,1010.16
2017-06-15T08:35:12.206Z,1010.12
2017-06-15T08:36:22.130Z,1010.1
2017-06-15T08:37:32.352Z,1010.11
2017-06-15T08:38:42.284Z,1010.13
2017-06-15T08:39:52.208Z,1010.09
2017-06-15T08:41:02.147Z,1010.08
2017-06-15T08:42:11.763Z,1010.03
2017-06-15T08:43:21.387Z,1010.01
2017-06-15T08:44:31.006Z,1010.05
2017-06-15T08:45:41.307Z,1010.04
2017-06-15T08:46:51.229Z,1010.01
2017-06-15T08:48:01.154Z,1010.02
2017-06-15T08:49:11.377Z,1010.05
2017-06-15T08:50:21.617Z,1010.03
2017-06-15T08:51:31.549Z,1010.01
2017-06-15T08:52:41.158Z,1010.03
2017-06-15T08:53:51.091Z,1009.98
2017-06-15T08:55:01.013Z,1009.94
2017-06-15T08:56:10.952Z,1009.94
2017-06-15T08:57:20.887Z,1009.96
2017-06-15T08:58:30.807Z,1009.97
2017-06-15T08:59:40.424Z,1009.96
2017-06-15T09:00:50.347Z,1009.99
2017-06-15T09:01:59.968Z,1009.98
2017-06-15T09:03:09.986Z,1010
2017-06-15T09:04:20.208Z,1010.04
2017-06-15T09:05:30.430Z,1010.02
2017-06-15T09:06:40.348Z,1010.01
2017-06-15T09:07:50.581Z,1009.98
2017-06-15T09:09:01.255Z,1010
2017-06-15T09:10:11.175Z,1010.06
2017-06-15T09:11:20.837Z,1010.07
2017-06-15T09:12:30.454Z,1010.04
2017-06-15T09:13:40.131Z,1010.06
2017-06-15T09:14:50.217Z,1010.06
2017-06-15T09:16:00.142Z,1010.06
2017-06-15T09:17:10.374Z,1010.02
2017-06-15T09:18:20.605Z,1010.05
2017-06-15T09:19:30.832Z,1010.01
2017-06-15T09:20:40.757Z,1009.99
2017-06-15T09:21:50.370Z,1010
2017-06-15T09:23:00.608Z,1009.98
2017-06-15T09:24:10.531Z,1009.99
2017-06-15T09:25:20.450Z,1009.92
2017-06-15T09:26:30.783Z,1009.93
2017-06-15T09:27:40.701Z,1009.9
2017-06-15T09:28:50.638Z,1009.92
2017-06-15T09:29:59.936Z,1009.89
2017-06-15T09:31:09.865Z,1009.86
2017-06-15T09:32:19.963Z,1009.85
2017-06-15T09:33:29.619Z,1009.81
2017-06-15T09:34:39.258Z,1009.83
2017-06-15T09:35:49.519Z,1009.79
2017-06-15T09:36:59.179Z,1009.8
2017-06-15T09:38:08.663Z,1009.75
2017-06-15T09:39:18.888Z,1009.71
2017-06-15T09:40:29.367Z,1009.66
2017-06-15T09:41:39.315Z,1009.73
2017-06-15T09:42:49.246Z,1009.74
2017-06-15T09:43:59.832Z,1009.74
2017-06-15T09:45:09.751Z,1009.72
2017-06-15T09:46:19.979Z,1009.69
2017-06-15T09:47:29.909Z,1009.67
2017-06-15T09:48:39.527Z,1009.67
2017-06-15T09:49:49.912Z,1009.67
2017-06-15T09:50:59.833Z,1009.71
2017-06-15T09:52:09.755Z,1009.68
2017-06-15T09:53:19.987Z,1009.67
2017-06-15T09:54:29.906Z,1009.69
2017-06-15T09:55:39.615Z,1009.61
2017-06-15T09:56:48.934Z,1009.57
2017-06-15T09:57:59.178Z,1009.6
2017-06-15T09:59:09.124Z,1009.6
2017-06-15T10:00:19.069Z,1009.65
2017-06-15T10:01:29.034Z,1009.61
2017-06-15T10:02:38.983Z,1009.59
2017-06-15T10:03:48.608Z,1009.58
2017-06-15T10:04:58.546Z,1009.62
2017-06-15T10:06:08.498Z,1009.6
2017-06-15T10:07:18.220Z,1009.56
2017-06-15T10:08:27.982Z,1009.55
2017-06-15T10:09:37.677Z,1009.54
2017-06-15T10:10:47.319Z,1009.51
2017-06-15T10:11:56.931Z,1009.51
2017-06-15T10:13:07.316Z,1009.5
2017-06-15T10:14:17.532Z,1009.49
2017-06-15T10:15:27.127Z,1009.47
2017-06-15T10:16:37.515Z,1009.45
2017-06-15T10:17:47.447Z,1009.46
2017-06-15T10:18:57.889Z,1009.42
2017-06-15T10:20:07.860Z,1009.44
2017-06-15T10:21:18.085Z,1009.45
2017-06-15T10:22:27.704Z,1009.42
2017-06-15T10:23:37.632Z,1009.44
2017-06-15T10:24:47.966Z,1009.39
2017-06-15T10:25:57.907Z,1009.38
2017-06-15T10:27:07.586Z,1009.39
2017-06-15T10:28:17.262Z,1009.36
2017-06-15T10:29:27.213Z,1009.38
2017-06-15T10:30:37.825Z,1009.41
2017-06-15T10:31:47.765Z,1009.37
2017-06-15T10:32:58.011Z,1009.3
2017-06-15T10:34:08.255Z,1009.26
2017-06-15T10:35:17.905Z,1009.24
2017-06-15T10:36:27.893Z,1009.2
2017-06-15T10:37:38.144Z,1009.12
2017-06-15T10:38:47.446Z,1009.18
2017-06-15T10:39:57.365Z,1009.15
2017-06-15T10:41:07.594Z,1009.13
2017-06-15T10:42:17.667Z,1009.11
2017-06-15T10:43:27.608Z,1009.09
2017-06-15T10:44:37.550Z,1009.1
2017-06-15T10:45:47.488Z,1009.12
2017-06-15T10:46:57.721Z,1009.13
2017-06-15T10:48:07.435Z,1009.13
2017-06-15T10:49:16.796Z,1009.11
2017-06-15T10:50:26.749Z,1009.13
2017-06-15T10:51:36.699Z,1009.15
2017-06-15T10:52:46.635Z,1009.16
2017-06-15T10:53:57.034Z,1009.14
2017-06-15T10:55:07.264Z,1009.13
2017-06-15T10:56:17.502Z,1009.18
2017-06-15T10:57:27.129Z,1009.14
2017-06-15T10:58:37.355Z,1009.11
2017-06-15T10:59:47.106Z,1009.12
2017-06-15T11:00:57.022Z,1009.12
2017-06-15T11:02:06.642Z,1009.1
2017-06-15T11:03:16.259Z,1009.11
2017-06-15T11:04:25.872Z,1009.16
2017-06-15T11:05:36.246Z,1009.12
2017-06-15T11:06:45.546Z,1009.13
2017-06-15T11:07:55.486Z,1009.09
2017-06-15T11:09:05.720Z,1009.1
2017-06-15T11:10:15.636Z,1009.07
2017-06-15T11:11:25.409Z,1009.08
2017-06-15T11:12:35.019Z,1009.04
2017-06-15T11:13:44.617Z,1009.02
2017-06-15T11:14:54.543Z,1009.02
2017-06-15T11:16:04.775Z,1009.06
2017-06-15T11:17:14.382Z,1009.02
2017-06-15T11:18:24.296Z,1009.02
2017-06-15T11:19:34.522Z,1009.01
2017-06-15T11:20:44.747Z,1008.98
2017-06-15T11:21:54.374Z,1008.98
2017-06-15T11:23:04.455Z,1008.94
2017-06-15T11:24:14.685Z,1008.91
2017-06-15T11:25:24.608Z,1008.9
2017-06-15T11:26:34.838Z,1008.9
2017-06-15T11:27:44.772Z,1008.87
2017-06-15T11:28:55.168Z,1008.91
2017-06-15T11:30:05.132Z,1008.92
2017-06-15T11:31:15.086Z,1008.86
2017-06-15T11:32:25.322Z,1008.85
2017-06-15T11:33:35.911Z,1008.85
2017-06-15T11:34:45.654Z,1008.85
2017-06-15T11:35:55.925Z,1008.84
2017-06-15T11:37:05.867Z,1008.81
2017-06-15T11:38:15.799Z,1008.84
2017-06-15T11:39:25.430Z,1008.84
2017-06-15T11:40:35.096Z,1008.85
2017-06-15T11:41:44.422Z,1008.81
2017-06-15T11:42:54.350Z,1008.8
2017-06-15T11:44:04.579Z,1008.82
2017-06-15T11:45:14.199Z,1008.87
2017-06-15T11:46:23.978Z,1008.84
2017-06-15T11:47:33.281Z,1008.83
2017-06-15T11:48:43.192Z,1008.82
2017-06-15T11:49:53.139Z,1008.84
2017-06-15T11:51:02.768Z,1008.89
2017-06-15T11:52:12.393Z,1008.89
2017-06-15T11:53:22.003Z,1008.84
2017-06-15T11:54:31.916Z,1008.88
2017-06-15T11:55:42.511Z,1008.83
2017-06-15T11:56:52.757Z,1008.78
2017-06-15T11:58:03.151Z,1008.82
2017-06-15T11:59:13.380Z,1008.79
2017-06-15T12:00:23.297Z,1008.79
2017-06-15T12:01:32.911Z,1008.76
2017-06-15T12:02:42.533Z,1008.75
2017-06-15T12:03:52.025Z,1008.78
2017-06-15T12:05:02.317Z,1008.75
2017-06-15T12:06:12.236Z,1008.73
2017-06-15T12:07:22.174Z,1008.77
2017-06-15T12:08:31.477Z,1008.69
2017-06-15T12:09:41.441Z,1008.69
2017-06-15T12:10:51.050Z,1008.7
2017-06-15T12:12:00.968Z,1008.67
2017-06-15T12:13:10.581Z,1008.67
2017-06-15T12:14:20.801Z,1008.67
2017-06-15T12:15:30.719Z,1008.63
2017-06-15T12:16:40.346Z,1008.6
2017-06-15T12:17:50.285Z,1008.63
2017-06-15T12:19:00.230Z,1008.58
2017-06-15T12:20:10.145Z,1008.5
2017-06-15T12:21:20.112Z,1008.5
2017-06-15T12:22:29.717Z,1008.49
2017-06-15T12:23:39.667Z,1008.48
2017-06-15T12:24:49.894Z,1008.48
2017-06-15T12:25:59.841Z,1008.49
2017-06-15T12:27:09.754Z,1008.48
2017-06-15T12:28:19.383Z,1008.44
2017-06-15T12:29:29.302Z,1008.43
2017-06-15T12:30:39.526Z,1008.46
2017-06-15T12:31:49.152Z,1008.49
2017-06-15T12:32:58.610Z,1008.43
2017-06-15T12:34:08.534Z,1008.48
2017-06-15T12:35:18.462Z,1008.44
2017-06-15T12:36:28.082Z,1008.44
2017-06-15T12:37:37.998Z,1008.42
2017-06-15T12:38:47.716Z,1008.4
2017-06-15T12:39:57.021Z,1008.38
2017-06-15T12:41:06.954Z,1008.36
2017-06-15T12:42:16.872Z,1008.43
2017-06-15T12:43:26.799Z,1008.4
2017-06-15T12:44:36.160Z,1008.35
2017-06-15T12:45:46.382Z,1008.36
2017-06-15T12:46:56.611Z,1008.31
2017-06-15T12:48:06.537Z,1008.35
2017-06-15T12:49:16.458Z,1008.32
2017-06-15T12:50:27.029Z,1008.29
2017-06-15T12:51:36.953Z,1008.27
2017-06-15T12:52:46.885Z,1008.27
2017-06-15T12:53:56.812Z,1008.21
2017-06-15T12:55:06.731Z,1008.27
2017-06-15T12:56:16.690Z,1008.27
2017-06-15T12:57:26.611Z,1008.28
2017-06-15T12:58:36.220Z,1008.25
2017-06-15T12:59:46.138Z,1008.22
2017-06-15T13:00:56.375Z,1008.26
2017-06-15T13:02:06.465Z,1008.23
2017-06-15T13:03:16.693Z,1008.23
2017-06-15T13:04:26.938Z,1008.18
2017-06-15T13:05:36.868Z,1008.22
2017-06-15T13:06:46.779Z,1008.18
2017-06-15T13:07:56.511Z,1008.17
2017-06-15T13:09:06.136Z,1008.16
2017-06-15T13:10:15.747Z,1008.14
2017-06-15T13:11:25.359Z,1008.13
2017-06-15T13:12:34.971Z,1008.08
2017-06-15T13:13:45.069Z,1008.06
2017-06-15T13:14:54.379Z,1008.01
2017-06-15T13:16:04.613Z,1008.01
2017-06-15T13:17:14.572Z,1007.99
2017-06-15T13:18:24.483Z,1007.95
2017-06-15T13:19:34.168Z,1007.9
2017-06-15T13:20:44.086Z,1007.91
2017-06-15T13:21:54.332Z,1007.89
2017-06-15T13:23:03.950Z,1007.86
2017-06-15T13:24:13.890Z,1007.9
2017-06-15T13:25:22.898Z,1007.83
2017-06-15T13:26:32.837Z,1007.87
2017-06-15T13:27:42.454Z,1007.81
2017-06-15T13:28:52.380Z,1007.78
2017-06-15T13:30:02.026Z,1007.76
2017-06-15T13:31:11.957Z,1007.72
2017-06-15T13:32:22.214Z,1007.7
2017-06-15T13:33:32.450Z,1007.62
2017-06-15T13:34:42.695Z,1007.61
2017-06-15T13:35:52.609Z,1007.61
2017-06-15T13:37:03.192Z,1007.64
2017-06-15T13:38:13.128Z,1007.62
2017-06-15T13:39:22.433Z,1007.58
2017-06-15T13:40:32.363Z,1007.62
2017-06-15T13:41:42.286Z,1007.66
2017-06-15T13:42:52.672Z,1007.64
2017-06-15T13:44:02.603Z,1007.68
2017-06-15T13:45:12.850Z,1007.7
2017-06-15T13:46:22.785Z,1007.67
2017-06-15T13:47:32.411Z,1007.65
2017-06-15T13:48:42.681Z,1007.59
2017-06-15T13:49:52.918Z,1007.55
2017-06-15T13:51:02.846Z,1007.57
2017-06-15T13:52:12.799Z,1007.63
2017-06-15T13:53:23.044Z,1007.68
2017-06-15T13:54:32.194Z,1007.7
2017-06-15T13:55:41.836Z,1007.72
2017-06-15T13:56:52.099Z,1007.74
2017-06-15T13:58:02.350Z,1007.75
2017-06-15T13:59:12.362Z,1007.76
2017-06-15T14:00:22.667Z,1007.73
2017-06-15T14:01:32.912Z,1007.75
2017-06-15T14:02:42.860Z,1007.74
2017-06-15T14:03:53.121Z,1007.76
2017-06-15T14:05:03.044Z,1007.76
2017-06-15T14:06:12.797Z,1007.76
2017-06-15T14:07:22.730Z,1007.72
2017-06-15T14:08:32.348Z,1007.71
2017-06-15T14:09:42.288Z,1007.69